^^
Datos históricos de la estación: Murcia-Puente Tocinos
Diario Informe para Septiembre 5, 2019 Unidades:  Ingés    Métrico   Ambas
Diario Semanal Mensual Anual
  Máxima: Mínima: Promedio:
Temperatura: 61.3 °F 52 °F 56.1 °F
Punto de rocio: 53.2 °F 47.1 °F 50 °F
Humedad: 89% 66.9% 81%
Velocidad viento: 6.9mph 0mph 2.8mph
Racha viento: 14mph - -
Viento- - SE
Presión: 30.1 in 29.8 in -
Precipitación: 0 in    
 
 
Tabla de datos para Septiembre 5, 2019
Hora Temperatura Punto de rocio Presión Viento Velocidad viento Racha viento Humedad Intensidad lluvia(por hora) Nubes
00:04 54.7 °F 47.7 °F 29.8 in Calm     77% 0 in
00:09 54.7 °F 47.7 °F 29.8 in Calm   4.7 mph 77% 0 in
00:14 54.7 °F 47.7 °F 29.8 in SSE 1.4 mph 6 mph 77% 0 in
00:19 54.7 °F 47.5 °F 29.8 in Sur 2 mph 5.9 mph 77% 0 in
00:24 54.5 °F 47.5 °F 29.8 in SSO 3.5 mph 6.2 mph 77% 0 in
00:29 54.5 °F 47.5 °F 29.8 in SSO 4 mph 8.1 mph 77% 0 in
00:34 54.7 °F 47.3 °F 29.8 in SSO 4.5 mph 8 mph 76% 0 in
00:39 54.9 °F 47.3 °F 29.8 in SO 4.7 mph 7.6 mph 75.9% 0 in
00:44 54.9 °F 47.1 °F 29.8 in SO 4.7 mph 8 mph 75% 0 in
00:49 54.9 °F 47.1 °F 29.8 in SO 4.7 mph 7 mph 75% 0 in
00:54 55 °F 47.3 °F 29.8 in SSO 4.4 mph 8.1 mph 75% 0 in
00:59 55 °F 47.5 °F 29.8 in SSO 4.3 mph 8 mph 76% 0 in
01:04 54.9 °F 47.5 °F 29.8 in SO 4.3 mph 7 mph 76% 0 in
01:09 54.9 °F 47.7 °F 29.8 in SSO 4.3 mph 6 mph 76.6% 0 in
01:14 54.9 °F 47.8 °F 29.8 in SSO 3.3 mph 5 mph 77% 0 in
01:19 54.9 °F 47.8 °F 29.8 in SO 2.9 mph 4 mph 77% 0 in
01:24 54.7 °F 48 °F 29.8 in SO 2.1 mph 4 mph 77.9% 0 in
01:29 54.7 °F 48 °F 29.8 in SSO 1.8 mph 4.6 mph 78% 0 in
01:34 54.7 °F 48.2 °F 29.8 in SSE 2.2 mph 5 mph 78.8% 0 in
01:39 54.5 °F 48.2 °F 29.8 in Sur 2.4 mph 5.4 mph 79.2% 0 in
01:44 54.3 °F 48.4 °F 29.8 in Sur 2.8 mph 6 mph 80% 0 in
01:49 54.3 °F 48.2 °F 29.8 in Sur 2.9 mph 6 mph 80% 0 in
01:54 54.1 °F 48.2 °F 29.8 in SSO 2.5 mph 5 mph 80% 0 in
01:59 54.1 °F 48.4 °F 29.8 in Sur 2.4 mph 5 mph 80.8% 0 in
02:04 54.1 °F 48.4 °F 29.8 in SSO 2.8 mph 5 mph 81% 0 in
02:09 54.1 °F 48.4 °F 29.8 in Sur 2.9 mph 5.4 mph 81% 0 in
02:14 54.1 °F 48.4 °F 29.8 in Sur 3.4 mph 6.2 mph 81.1% 0 in
02:19 54 °F 48.6 °F 29.8 in Sur 3.6 mph 6.9 mph 82% 0 in
02:24 54 °F 48.6 °F 29.8 in SSO 4.1 mph 7 mph 82% 0 in
02:29 54 °F 48.6 °F 29.8 in SSO 4.3 mph 7 mph 82% 0 in
02:34 54 °F 48.6 °F 29.8 in SSO 3.8 mph 6 mph 82% 0 in
02:39 54 °F 48.4 °F 29.8 in SSO 3.6 mph 6.4 mph 81.2% 0 in
02:44 54 °F 48.4 °F 29.8 in SSO 3.9 mph 7 mph 81% 0 in
02:49 54 °F 48.4 °F 29.8 in SSO 4 mph 6 mph 81% 0 in
02:54 54.1 °F 48.4 °F 29.8 in SSO 4 mph 6.9 mph 80.8% 0 in
02:59 54.1 °F 48.4 °F 29.8 in SO 4 mph 7 mph 80.8% 0 in
03:04 54.1 °F 48 °F 29.8 in SO 3.7 mph 6 mph 80% 0 in
03:09 54.1 °F 48.2 °F 29.8 in OSO 3.6 mph 5.4 mph 80.5% 0 in
03:14 54.1 °F 48.2 °F 29.8 in SO 2.7 mph 6 mph 80.3% 0 in
03:19 54 °F 48.4 °F 29.8 in SO 2.4 mph 6 mph 81% 0 in
03:24 54 °F 48.4 °F 29.8 in SO 2.9 mph 5.2 mph 81% 0 in
03:29 54 °F 48.2 °F 29.8 in OSO 3.1 mph 5.8 mph 81% 0 in
03:34 53.8 °F 48.2 °F 29.8 in ONO 2.6 mph 6 mph 81.2% 0 in
03:39 53.8 °F 48.4 °F 29.8 in NO 2.4 mph 5 mph 82% 0 in
03:44 53.4 °F 48.2 °F 29.8 in NO 1.9 mph 3.6 mph 82.3% 0 in
03:49 53.2 °F 48.2 °F 29.8 in NNE 1.8 mph 4.6 mph 83% 0 in
03:54 53.1 °F 48.4 °F 29.8 in ESE 1.9 mph 5 mph 84% 0 in
03:59 52.9 °F 48.4 °F 29.8 in ESE 2 mph 5 mph 84.6% 0 in
04:04 52.7 °F 48.4 °F 29.8 in ESE 2 mph 4 mph 85% 0 in
04:09 52.5 °F 48.2 °F 29.8 in ESE 2 mph 2 mph 85% 0 in
04:14 52.5 °F 48.6 °F 29.8 in SE 0.6 mph 5.8 mph 86% 0 in
04:19 52.5 °F 48.6 °F 29.8 in Calm   6.2 mph 86% 0 in
04:24 52.5 °F 48.6 °F 29.8 in Sur 2.9 mph 6.2 mph 86% 0 in
04:29 52.5 °F 48.2 °F 29.8 in SSO 4 mph 6 mph 85.4% 0 in
04:34 52.5 °F 48 °F 29.8 in SSO 4 mph 6 mph 85% 0 in
04:39 52.5 °F 48 °F 29.8 in SSO 4 mph 6 mph 85% 0 in
04:44 52.5 °F 48 °F 29.8 in SSO 3.4 mph 6 mph 85% 0 in
04:49 52.5 °F 48.2 °F 29.8 in SSE 3.1 mph 5 mph 85% 0 in
04:54 52.7 °F 48 °F 29.8 in SSE 3.1 mph 6.9 mph 84.1% 0 in
04:59 52.7 °F 48 °F 29.8 in SSE 3.1 mph 7 mph 84% 0 in
05:04 52.9 °F 48 °F 29.8 in SSE 3.1 mph 5 mph 83.7% 0 in
05:09 52.9 °F 47.8 °F 29.8 in Sur 3.1 mph 5 mph 83% 0 in
05:14 52.9 °F 47.8 °F 29.8 in SSO 2.2 mph 5.2 mph 83% 0 in
05:19 52.9 °F 47.8 °F 29.8 in SO 1.8 mph 5 mph 83% 0 in
05:24 52.9 °F 47.8 °F 29.8 in Sur 2.2 mph 5 mph 83% 0 in
05:29 52.9 °F 47.7 °F 29.8 in Sur 2.4 mph 4 mph 82.5% 0 in
05:34 52.9 °F 47.7 °F 29.8 in Sur 1.9 mph 3 mph 82.5% 0 in
05:39 52.9 °F 47.8 °F 29.8 in Oeste 1.8 mph 4.6 mph 83% 0 in
05:44 52.9 °F 47.8 °F 29.8 in ONO 1.5 mph 5 mph 83% 0 in
05:49 52.9 °F 47.8 °F 29.8 in ONO 1.4 mph 2 mph 83% 0 in
05:54 52.9 °F 47.8 °F 29.8 in ONO 0.4 mph   83% 0 in
05:59 52.9 °F 47.8 °F 29.8 in Calm   3.6 mph 83% 0 in
06:04 52.9 °F 47.8 °F 29.8 in SE 1.1 mph 4.6 mph 83% 0 in
06:09 52.7 °F 47.7 °F 29.9 in Sur 1.4 mph 5 mph 83% 0 in
06:14 52.5 °F 47.5 °F 29.9 in Sur 2.1 mph 5 mph 83% 0 in
06:19 52.5 °F 47.7 °F 29.9 in SSE 2.4 mph 5 mph 83.8% 0 in
06:24 52.5 °F 47.8 °F 29.9 in SE 2.8 mph 5 mph 84% 0 in
06:29 52.3 °F 47.7 °F 29.9 in SE 2.9 mph 5 mph 84% 0 in
06:34 52.3 °F 47.7 °F 29.9 in SE 2.1 mph 3.5 mph 84% 0 in
06:39 52.5 °F 47.5 °F 29.9 in SE 1.8 mph 3.5 mph 83.2% 0 in
06:44 52.5 °F 47.5 °F 29.9 in SE 1.9 mph 3 mph 83% 0 in
06:49 52.5 °F 47.5 °F 29.9 in SE 2 mph 2 mph 83% 0 in
06:54 52.5 °F 47.5 °F 29.9 in SE 0.6 mph   83% 0 in
06:59 52.3 °F 47.3 °F 29.9 in Calm     83% 0 in
07:04 52.2 °F 47.3 °F 29.9 in Calm     83.4% 0 in
07:09 52 °F 47.3 °F 29.9 in Calm     84% 0 in
07:14 52 °F 47.3 °F 29.9 in Calm     84.4% 0 in
07:19 52 °F 47.5 °F 29.9 in Calm     85% 0 in
07:24 52 °F 47.7 °F 29.9 in Calm     85% 0 in
07:29 52 °F 47.8 °F 29.9 in Calm     85.7% 0 in
07:34 52.2 °F 47.8 °F 29.9 in Calm     85.3% 0 in
07:39 52.2 °F 47.8 °F 29.9 in Calm     85% 0 in
07:44 52.2 °F 47.8 °F 29.9 in Calm   5.8 mph 85% 0 in
07:49 52.3 °F 47.7 °F 29.9 in Calm   6.2 mph 84.1% 0 in
07:54 52.5 °F 47.7 °F 29.9 in Oeste 2.9 mph 6.4 mph 83.6% 0 in
07:59 52.5 °F 47.5 °F 29.9 in Oeste 4 mph 7 mph 83% 0 in
08:04 52.3 °F 47.3 °F 29.9 in Oeste 4 mph 6 mph 83% 0 in
08:09 52.3 °F 47.3 °F 29.9 in Oeste 4 mph 5 mph 83% 0 in
08:14 52.3 °F 47.5 °F 29.9 in ONO 2.4 mph 5 mph 83.6% 0 in
08:19 52.3 °F 47.7 °F 29.9 in ONO 1.8 mph   84% 0 in
08:24 52.3 °F 47.7 °F 29.9 in ONO 0.5 mph   84% 0 in
08:29 52.3 °F 47.7 °F 29.9 in Calm     84% 0 in
08:34 52.5 °F 47.8 °F 29.9 in Calm     84% 0 in
08:39 52.9 °F 48.2 °F 29.9 in Calm     84% 0 in
08:44 53.2 °F 48.4 °F 29.9 in Calm     83.6% 0 in
08:49 53.4 °F 48.4 °F 29.9 in Calm     83% 0 in
08:54 53.8 °F 48.6 °F 29.9 in Calm   4.7 mph 82.9% 0 in
08:59 53.8 °F 48.6 °F 29.9 in Calm   5 mph 82.6% 0 in
09:04 53.8 °F 48.7 °F 29.9 in SSO 1.6 mph 5 mph 83% 0 in
09:09 54 °F 48.9 °F 29.9 in OSO 2 mph 2 mph 83% 0 in
09:14 54 °F 48.7 °F 29.9 in Oeste 0.5 mph   82% 0 in
09:19 54.1 °F 48.7 °F 29.9 in Calm   4.6 mph 81.9% 0 in
09:24 54.1 °F 48.2 °F 29.9 in Oeste 1.3 mph 5 mph 80.5% 0 in
09:29 54.1 °F 48 °F 29.9 in OSO 1.8 mph 5 mph 80% 0 in
09:34 54.1 °F 48.2 °F 29.9 in SO 2.6 mph 5 mph 80% 0 in
09:39 54.3 °F 48.2 °F 30 in SO 2.9 mph 3.6 mph 79.9% 0 in
09:44 54.3 °F 48 °F 30 in OSO 1.8 mph 4.7 mph 79% 0 in
09:49 54.5 °F 47.8 °F 30 in OSO 1.4 mph 5 mph 78% 0 in
09:54 54.9 °F 47.8 °F 30 in OSO 2.2 mph 5.2 mph 77.4% 0 in
09:59 55 °F 47.7 °F 30 in SO 2.4 mph 5 mph 75.9% 0 in
10:04 55.4 °F 47.7 °F 30 in SO 2.4 mph 5 mph 75% 0 in
10:09 55.8 °F 47.7 °F 30 in SO 2.4 mph 5 mph 74.1% 0 in
10:14 55.9 °F 47.5 °F 30 in Oeste 2.1 mph 5.8 mph 73% 0 in
10:19 55.9 °F 47.5 °F 30 in Oeste 2 mph 6.4 mph 73% 0 in
10:24 56.1 °F 47.1 °F 30 in Oeste 3.2 mph 7 mph 72% 0 in
10:29 56.3 °F 47.7 °F 30 in ONO 3.6 mph 6 mph 72.7% 0 in
10:34 56.7 °F 47.5 °F 30 in Oeste 2.4 mph 4.6 mph 71.6% 0 in
10:39 56.8 °F 47.5 °F 30 in OSO 2 mph 5 mph 71% 0 in
10:44 57 °F 47.3 °F 30 in ONO 1.9 mph 4.6 mph 70.1% 0 in
10:49 57 °F 47.3 °F 30 in NO 1.8 mph 5 mph 69.9% 0 in
10:54 56.8 °F 47.3 °F 30 in ONO 1.8 mph 3 mph 70% 0 in
10:59 56.8 °F 47.3 °F 30 in ONO 1.8 mph   70.2% 0 in
11:04 57.4 °F 47.7 °F 30 in ONO 0.4 mph   70% 0 in
11:09 58.1 °F 47.8 °F 30 in Calm     68.4% 0 in
11:14 58.6 °F 48 °F 30 in Calm     67.4% 0 in
11:19 59.2 °F 48.2 °F 30 in Calm     67% 0 in
11:24 59.4 °F 48.4 °F 30 in Calm   6.2 mph 67.1% 0 in
11:29 59.2 °F 48.9 °F 30 in Calm   6 mph 68.8% 0 in
11:34 59 °F 48.9 °F 30 in NNO 2.1 mph 6.2 mph 69% 0 in
11:39 58.8 °F 49.1 °F 30 in North 2.9 mph 6 mph 70% 0 in
11:44 58.6 °F 49.1 °F 30 in North 3 mph 6.9 mph 70.6% 0 in
11:49 58.6 °F 49.5 °F 30 in North 3.1 mph 7 mph 71.9% 0 in
11:54 58.8 °F 50 °F 30 in North 3.1 mph 8.1 mph 72.4% 0 in
11:59 58.8 °F 49.8 °F 30 in NE 3.1 mph 8.1 mph 72% 0 in
12:04 58.5 °F 49.8 °F 30 in NE 4.3 mph 8 mph 73.3% 0 in
12:09 58.1 °F 50 °F 30 in NE 4.7 mph 6.9 mph 74% 0 in
12:14 57.9 °F 50 °F 30 in ENE 4.4 mph 7 mph 75.1% 0 in
12:19 58.1 °F 50.5 °F 30 in ENE 4.3 mph 5 mph 76% 0 in
12:24 58.5 °F 50.9 °F 30 in NE 2.2 mph 6.4 mph 76% 0 in
12:29 58.8 °F 51.3 °F 30 in North 1.4 mph 8.1 mph 75.9% 0 in
12:34 58.8 °F 51.3 °F 30 in NNE 3 mph 10.7 mph 76% 0 in
12:39 58.6 °F 51.3 °F 30 in NE 3.6 mph 11 mph 76% 0 in
12:44 58.6 °F 51.1 °F 30 in NE 5.5 mph 10 mph 76% 0 in
12:49 58.6 °F 51.3 °F 30 in NE 6.2 mph 10 mph 76.7% 0 in
12:54 58.6 °F 51.3 °F 30 in NNE 5.5 mph 7 mph 76.8% 0 in
12:59 58.6 °F 51.4 °F 30 in NNE 5.2 mph 8.1 mph 77% 0 in
13:04 58.6 °F 51.4 °F 30 in NNE 4.3 mph 8.1 mph 77% 0 in
13:09 58.8 °F 51.6 °F 30 in NNO 4 mph 8 mph 77% 0 in
13:14 58.8 °F 51.8 °F 30 in NNO 3.2 mph 5.8 mph 77.1% 0 in
13:19 59.2 °F 51.8 °F 30 in NO 2.9 mph 6.4 mph 76.6% 0 in
13:24 59.2 °F 51.6 °F 30 in North 3 mph 7 mph 76% 0 in
13:29 59.4 °F 51.4 °F 30 in North 3.1 mph 7 mph 75.3% 0 in
13:34 59.5 °F 51.6 °F 30 in North 3 mph 8.1 mph 75% 0 in
13:39 59.7 °F 51.1 °F 30 in NNE 2.9 mph 8 mph 73.3% 0 in
13:44 59.9 °F 50.9 °F 30 in NNE 3.9 mph 7 mph 72% 0 in
13:49 60.3 °F 51.4 °F 30 in NNE 4.3 mph 9.2 mph 72.5% 0 in
13:54 60.3 °F 51.8 °F 30 in NNE 5 mph 9.2 mph 74% 0 in
13:59 59.7 °F 51.3 °F 30 in NNE 5.2 mph 10.4 mph 73.7% 0 in
14:04 59.7 °F 51.1 °F 30 in NNE 5.7 mph 10 mph 73% 0 in
14:09 59.7 °F 51.1 °F 30 in NE 5.9 mph 8.1 mph 73.1% 0 in
14:14 59.7 °F 51.4 °F 30 in NE 5.4 mph 9.7 mph 74% 0 in
14:19 59.7 °F 51.4 °F 30 in NE 5.2 mph 10 mph 74.1% 0 in
14:24 60.1 °F 51.6 °F 30 in NE 5.3 mph 9 mph 74% 0 in
14:29 60.3 °F 51.6 °F 30 in NE 5.4 mph 8 mph 73% 0 in
14:34 60.4 °F 51.6 °F 30 in NNE 4.6 mph 8 mph 72.6% 0 in
14:39 60.8 °F 51.4 °F 30 in North 4.3 mph 11.2 mph 71.5% 0 in
14:44 61.2 °F 51.3 °F 30 in NNE 4.3 mph 12.7 mph 70.1% 0 in
14:49 61.2 °F 51.4 °F 30 in NNE 4.3 mph 13 mph 70.6% 0 in
14:54 60.6 °F 51.3 °F 30 in NNE 5.8 mph 12 mph 71.2% 0 in
14:59 60.4 °F 51.4 °F 30 in NNE 6.4 mph 10 mph 72% 0 in
15:04 60.3 °F 51.6 °F 30 in NNE 5.5 mph 9.2 mph 73% 0 in
15:09 60.4 °F 51.6 °F 30 in NE 5.2 mph 10.4 mph 72.7% 0 in
15:14 60.6 °F 51.4 °F 30 in NE 5.2 mph 10 mph 72% 0 in
15:19 60.6 °F 51.4 °F 30 in NE 5.2 mph 8.5 mph 71.7% 0 in
15:24 60.6 °F 51.6 °F 30 in NNE 4.8 mph 9 mph 71.8% 0 in
15:29 61.2 °F 51.8 °F 30 in NNE 4.7 mph 7.6 mph 71.7% 0 in
15:34 61.3 °F 51.6 °F 30 in NE 4.4 mph 11.5 mph 70.4% 0 in
15:39 61.2 °F 51.3 °F 30 in NE 4.3 mph 12 mph 69.7% 0 in
15:44 61 °F 51.1 °F 30 in NE 5.7 mph 9.2 mph 70% 0 in
15:49 61.2 °F 50.9 °F 30 in NE 6.2 mph 8.5 mph 69.2% 0 in
15:54 61.2 °F 50.2 °F 30 in NE 4.8 mph 9.7 mph 67.1% 0 in
15:59 61.2 °F 50.7 °F 30 in ENE 4.3 mph 10 mph 68.5% 0 in
16:04 61.2 °F 50.7 °F 30 in NE 5.2 mph 9 mph 68.6% 0 in
16:09 61.2 °F 50 °F 30 in NE 5.4 mph 11.5 mph 66.9% 0 in
16:14 61.2 °F 50 °F 30 in NE 5.3 mph 12 mph 67% 0 in
16:19 60.8 °F 49.8 °F 30 in NE 5.2 mph 9 mph 67.1% 0 in
16:24 60.6 °F 50 °F 30 in NE 5.3 mph 8.1 mph 68% 0 in
16:29 60.8 °F 50.4 °F 30 in NE 5.4 mph 9.2 mph 68.6% 0 in
16:34 60.8 °F 50.9 °F 30 in NE 5.4 mph 9.2 mph 69.9% 0 in
16:39 60.8 °F 51.6 °F 30 in ENE 5.4 mph 9.2 mph 71.9% 0 in
16:44 60.6 °F 52.2 °F 30 in NE 5.3 mph 9 mph 73.5% 0 in
16:49 60.6 °F 52.5 °F 30 in NE 5.2 mph 10.4 mph 74.7% 0 in
16:54 60.3 °F 52.7 °F 30 in NE 5.7 mph 10.7 mph 76.1% 0 in
16:59 59.7 °F 52.7 °F 30 in NE 5.9 mph 11 mph 77.2% 0 in
17:04 59.5 °F 52.7 °F 30 in NE 6.2 mph 11.8 mph 78.1% 0 in
17:09 59.2 °F 52.7 °F 30 in NE 6.2 mph 12.5 mph 79% 0 in
17:14 58.8 °F 52.5 °F 30 in NE 6.2 mph 14 mph 79.3% 0 in
17:19 58.6 °F 52.5 °F 30 in NE 6.2 mph 14 mph 80% 0 in
17:24 58.6 °F 52.5 °F 30 in ENE 6.7 mph 12 mph 80.5% 0 in
17:29 58.5 °F 52.5 °F 30 in NE 6.9 mph 12 mph 81% 0 in
17:34 58.5 °F 52.9 °F 30 in NE 5.8 mph 13 mph 81.7% 0 in
17:39 58.3 °F 52.9 °F 30 in NE 5.4 mph 13 mph 82% 0 in
17:44 58.3 °F 52.9 °F 30 in NE 6 mph 10.4 mph 82.6% 0 in
17:49 57.9 °F 52.9 °F 30 in NE 6.2 mph 9.2 mph 83% 0 in
17:54 57.9 °F 52.9 °F 30 in NE 5.6 mph 9.7 mph 83% 0 in
17:59 57.9 °F 53.1 °F 30 in NE 5.4 mph 10.4 mph 83.8% 0 in
18:04 57.7 °F 52.9 °F 30 in NE 5.8 mph 10 mph 84% 0 in
18:09 57.7 °F 52.9 °F 30 in NE 5.9 mph 9.7 mph 84% 0 in
18:14 57.7 °F 53.1 °F 30 in NNE 5.9 mph 10 mph 84.4% 0 in
18:19 57.6 °F 53.1 °F 30 in NNE 5.9 mph 9.2 mph 85% 0 in
18:24 57.6 °F 53.1 °F 30 in NNE 5.4 mph 9 mph 85% 0 in
18:29 57.4 °F 52.9 °F 30 in NNE 5.2 mph 7 mph 85% 0 in
18:34 57.4 °F 53.1 °F 30 in NNE 4.5 mph 6.2 mph 85.8% 0 in
18:39 57.2 °F 53.1 °F 30 in NNE 4.3 mph 6 mph 86% 0 in
18:44 57 °F 52.9 °F 30 in NNE 3.4 mph 6 mph 86% 0 in
18:49 57 °F 52.9 °F 30 in NE 3.1 mph 6 mph 86% 0 in
18:54 57 °F 53.1 °F 30 in NE 3.5 mph 6.9 mph 86.7% 0 in
18:59 57 °F 53.2 °F 30 in NE 3.6 mph 7 mph 87% 0 in
19:04 57 °F 53.2 °F 30 in NE 3.6 mph 7 mph 87% 0 in
19:09 57 °F 53.2 °F 30.1 in NE 3.6 mph 5.8 mph 87% 0 in
19:14 56.8 °F 53.1 °F 30.1 in NNE 3 mph 6 mph 87% 0 in
19:19 56.8 °F 53.1 °F 30.1 in NE 2.9 mph 6 mph 87% 0 in
19:24 56.8 °F 53.1 °F 30.1 in NE 3 mph 5.9 mph 87% 0 in
19:29 56.7 °F 52.9 °F 30.1 in NE 3.1 mph 6 mph 87.2% 0 in
19:34 56.7 °F 53.1 °F 30.1 in NNE 3.1 mph 6 mph 88% 0 in
19:39 56.7 °F 53.1 °F 30.1 in NNE 3.1 mph 5 mph 88% 0 in
19:44 56.7 °F 53.1 °F 30.1 in NE 2.9 mph 5.2 mph 88% 0 in
19:49 56.5 °F 53.1 °F 30.1 in NE 2.9 mph 5.8 mph 88% 0 in
19:54 56.5 °F 53.1 °F 30.1 in NE 3.4 mph 6 mph 88% 0 in
19:59 56.5 °F 53.1 °F 30.1 in NE 3.6 mph 6.9 mph 88% 0 in
20:04 56.5 °F 53.1 °F 30.1 in NE 3.6 mph 7 mph 88% 0 in
20:09 56.5 °F 53.1 °F 30.1 in NE 3.6 mph 6 mph 88% 0 in
20:14 56.5 °F 53.1 °F 30.1 in NE 3.6 mph 6 mph 88% 0 in
20:19 56.5 °F 53.1 °F 30.1 in NE 3.6 mph 6 mph 88% 0 in
20:24 56.5 °F 53.1 °F 30.1 in NE 3.2 mph 5.2 mph 88% 0 in
20:29 56.5 °F 53.1 °F 30.1 in North 3.1 mph 5 mph 88% 0 in
20:34 56.5 °F 53.1 °F 30.1 in NNO 2.3 mph 3.5 mph 88% 0 in
20:39 56.3 °F 52.9 °F 30.1 in NNO 2 mph 3.1 mph 88% 0 in
20:44 56.1 °F 52.7 °F 30.1 in NNO 0.5 mph 3.5 mph 88% 0 in
20:49 56.1 °F 52.9 °F 30.1 in Calm   2 mph 88.8% 0 in
20:54 56.1 °F 52.9 °F 30.1 in Calm     89% 0 in
20:59 56.1 °F 52.9 °F 30.1 in Calm   2.4 mph 89% 0 in
21:04 56.1 °F 52.9 °F 30.1 in Calm   2 mph 89% 0 in
21:09 55.9 °F 52.7 °F 30.1 in Calm     89% 0 in
21:14 55.9 °F 52.7 °F 30.1 in Calm     89% 0 in
21:19 55.9 °F 52.7 °F 30.1 in Calm     89% 0 in
21:24 55.9 °F 52.7 °F 30.1 in Calm     89% 0 in
21:29 55.9 °F 52.7 °F 30.1 in Calm     89% 0 in
21:34 55.9 °F 52.7 °F 30.1 in Calm   3.6 mph 89% 0 in
21:39 55.8 °F 52.7 °F 30.1 in Calm   4.6 mph 89% 0 in
21:44 55.8 °F 52.5 °F 30.1 in NNE 1.5 mph 5 mph 89% 0 in
21:49 55.8 °F 52.5 °F 30.1 in NNE 2 mph 5 mph 89% 0 in
21:54 55.8 °F 52.5 °F 30.1 in NNE 1.6 mph 3.5 mph 89% 0 in
21:59 55.8 °F 52.5 °F 30.1 in NNE 1.4 mph 3.6 mph 89% 0 in
22:04 55.8 °F 52.5 °F 30.1 in NNE 1.7 mph 4 mph 89% 0 in
22:09 55.8 °F 52.5 °F 30.1 in NNE 1.8 mph 4 mph 89% 0 in
22:14 55.8 °F 52.5 °F 30.1 in NNE 1.5 mph 2 mph 89% 0 in
22:19 55.8 °F 52.5 °F 30.1 in NNE 1.4 mph   89% 0 in
22:24 55.8 °F 52.5 °F 30.1 in NNE 0.4 mph 2.3 mph 89% 0 in
22:29 55.8 °F 52.5 °F 30.1 in Calm   2 mph 89% 0 in
22:34 55.8 °F 52.5 °F 30.1 in Calm     89% 0 in
22:39 55.8 °F 52.5 °F 30.1 in Calm     89% 0 in
22:44 55.8 °F 52.5 °F 30.1 in Calm     89% 0 in
22:49 55.8 °F 52.5 °F 30.1 in Calm   3.6 mph 89% 0 in
22:54 55.8 °F 52.5 °F 30.1 in Calm   5.2 mph 89% 0 in
22:59 55.8 °F 52.5 °F 30.1 in Calm   5 mph 89% 0 in
23:04 55.8 °F 52.5 °F 30.1 in NO 1.9 mph 4 mph 89% 0 in
23:09 55.8 °F 52.5 °F 30.1 in NO 2.4 mph 4 mph 89% 0 in
23:14 55.8 °F 52.5 °F 30.1 in NO 1.7 mph 2 mph 89% 0 in
23:19 55.8 °F 52.5 °F 30.1 in NO 1.4 mph   89% 0 in
23:24 55.8 °F 52.5 °F 30.1 in NO 0.4 mph   89% 0 in
23:29 55.8 °F 52.5 °F 30.1 in Calm     89% 0 in
23:34 55.8 °F 52.5 °F 30.1 in Calm   2.3 mph 88.9% 0 in
23:39 55.8 °F 52.3 °F 30.1 in Calm   2 mph 88% 0 in
23:44 55.8 °F 52.2 °F 30.1 in Calm     88% 0 in
23:49 55.6 °F 52.2 °F 30.1 in Calm     88% 0 in
23:54 55.6 °F 52.2 °F 30.1 in Calm     88% 0 in
23:59 55.6 °F 52.2 °F 30.1 in Calm   4.6 mph 88% 0 in
Murcia-Puente Tocinos, Espa?a
Compliments of Weather Underground - 3 mb

La estación de MeteoMurcia.com, publica sus datos en los siguientes proyectos:

Weather Underground PWS IMURCIAP2 Meteoclimatic www.awekas.at

W3Counter
Web Analytics